Nesenie raksti

Ziņas

Par Gliding.lv

Gliding.lv ir interneta vietne par planieriem un planierismu. Šeit būs atrodama informācija par iespējām pamēģināt, iesaistīties un organizēt planierisma aktivitātes. Izmanto Gliding.lv forumu, ja Tev ir kāda tēma diskusijai vai jautājums. Gliding.lv merķis ir informēt un apvienot planierisma interesentus, nodrošinot un apmainoties ar aktuālāko un arī bijušo. Lidojam!

Laiks Rīgā
21°
clear sky
mitrums: 35%
vējš: 6m/s DDA
Aug 22 • Zem 21
18°
Cet
14°
Pie
11°
Ses
16°
Svē
Meteo-dati no OpenWeatherMap

METAR

EVRA 120620Z 15008KT 110V170 CAVOK 20/05 Q1016 NOSIG

EVLA 120620Z AUTO 12011KT 9999 NCD 19/04 Q1012

EVVA 120620Z AUTO 13010KT CAVOK 20/04 Q1013

Nesenie raksti

Pāriet uz rīkjoslu